Time;durP1;ratioP1;P1;durP2;ratioP2;P2;SDS_P1;SDS_P2;PMS_P1;PMS_P2;Temp;Humidity;BMP_temperature;BMP_pressure;BME280_temperature;BME280_humidity;BME280_pressure;Samples;Min_cycle;Max_cycle;Signal;HPM_P1;HPM_P2
2022/12/16 00:00:44;;;;;;;94.60;69.87;;;11.50;56.70;;;;;;4940535;28;89325;-50
2022/12/16 00:03:10;;;;;;;95.70;70.63;;;11.50;56.60;;;;;;4935170;28;90385;-48
2022/12/16 00:05:36;;;;;;;93.70;70.47;;;11.50;56.70;;;;;;4927646;28;90061;-46
2022/12/16 00:08:03;;;;;;;95.17;69.07;;;11.50;56.60;;;;;;4926874;28;90684;-47
2022/12/16 00:10:51;;;;;;;91.17;68.70;;;11.50;56.60;;;;;;4933668;28;90040;-47
2022/12/16 00:13:14;;;;;;;94.47;68.93;;;11.50;56.60;;;;;;4935830;28;89752;-48
2022/12/16 00:15:39;;;;;;;93.60;69.87;;;11.50;56.50;;;;;;4929869;28;90550;-51
2022/12/16 00:18:05;;;;;;;94.07;68.57;;;11.50;56.40;;;;;;4926261;28;89510;-49
2022/12/16 00:20:31;;;;;;;93.30;69.90;;;11.50;56.30;;;;;;4922209;28;91970;-47
2022/12/16 00:22:56;;;;;;;92.70;68.93;;;11.50;56.20;;;;;;4934699;28;90900;-49
2022/12/16 00:25:22;;;;;;;91.60;68.57;;;11.50;56.10;;;;;;4926859;28;89542;-46
2022/12/16 00:27:48;;;;;;;90.73;69.00;;;11.40;56.30;;;;;;4944307;28;89191;-48
2022/12/16 00:30:13;;;;;;;94.97;70.40;;;11.40;56.30;;;;;;4933499;28;91286;-48
2022/12/16 00:32:39;;;;;;;93.17;68.87;;;11.40;56.20;;;;;;4931807;28;90250;-46
2022/12/16 00:35:05;;;;;;;91.90;69.70;;;11.40;56.20;;;;;;4929034;28;89496;-46
2022/12/16 00:37:31;;;;;;;95.27;69.37;;;11.40;56.10;;;;;;4943305;28;88401;-49
2022/12/16 00:39:57;;;;;;;93.60;68.90;;;11.40;55.90;;;;;;4940900;28;89640;-49
2022/12/16 00:42:22;;;;;;;92.67;68.10;;;11.40;55.80;;;;;;4922960;28;92892;-50
2022/12/16 00:44:48;;;;;;;92.37;69.13;;;11.30;56.10;;;;;;4932158;28;90200;-54
2022/12/16 00:47:14;;;;;;;90.63;67.70;;;11.30;55.90;;;;;;4935602;28;89127;-47
2022/12/16 00:49:39;;;;;;;92.23;67.03;;;11.30;55.90;;;;;;4932195;28;89984;-48
2022/12/16 00:52:05;;;;;;;88.67;66.30;;;11.30;56.00;;;;;;4944141;28;90306;-49
2022/12/16 00:54:30;;;;;;;91.93;68.47;;;11.20;56.00;;;;;;4931490;28;92877;-47
2022/12/16 00:56:56;;;;;;;91.73;66.40;;;11.20;56.00;;;;;;4936325;28;89077;-48
2022/12/16 00:59:22;;;;;;;91.80;68.53;;;11.30;56.00;;;;;;4934403;28;89858;-46
2022/12/16 01:01:47;;;;;;;87.13;66.90;;;11.30;56.00;;;;;;4922959;28;90644;-49
2022/12/16 01:04:13;;;;;;;89.07;66.27;;;11.20;56.00;;;;;;4939341;28;89013;-46
2022/12/16 01:06:39;;;;;;;91.67;67.20;;;11.20;55.90;;;;;;4923016;28;91300;-49
2022/12/16 01:09:04;;;;;;;88.73;66.57;;;11.20;55.90;;;;;;4927680;28;92006;-47
2022/12/16 01:11:30;;;;;;;87.90;66.77;;;11.20;56.00;;;;;;4927226;28;91571;-50
2022/12/16 01:13:55;;;;;;;88.60;66.93;;;11.20;56.00;;;;;;4941110;28;91074;-49
2022/12/16 01:16:22;;;;;;;88.50;67.80;;;11.20;55.90;;;;;;4928577;28;89345;-50
2022/12/16 01:18:47;;;;;;;86.90;66.03;;;11.10;56.60;;;;;;4933352;28;89563;-47
2022/12/16 01:21:14;;;;;;;88.00;66.60;;;11.10;56.00;;;;;;4934065;28;89458;-48
2022/12/16 01:23:40;;;;;;;86.93;66.10;;;11.10;56.10;;;;;;4928292;28;89657;-48
2022/12/16 01:26:05;;;;;;;90.47;67.60;;;11.10;56.00;;;;;;4922188;28;89748;-48
2022/12/16 01:28:31;;;;;;;85.93;67.03;;;11.10;56.00;;;;;;4929006;28;89243;-50
2022/12/16 01:31:00;;;;;;;85.87;65.73;;;11.10;55.80;;;;;;4928600;28;89862;-47
2022/12/16 01:33:31;;;;;;;90.60;66.73;;;11.10;55.80;;;;;;4924662;28;90619;-48
2022/12/16 01:36:01;;;;;;;88.17;66.80;;;11.10;56.50;;;;;;4939361;28;89105;-47
2022/12/16 01:38:27;;;;;;;88.10;67.37;;;11.10;55.80;;;;;;4926392;28;90612;-51
2022/12/16 01:40:53;;;;;;;90.00;66.63;;;11.00;55.80;;;;;;4936273;28;89584;-47
2022/12/16 01:43:24;;;;;;;91.30;67.53;;;11.00;55.70;;;;;;4933764;28;89193;-47
2022/12/16 01:45:50;;;;;;;88.17;67.83;;;11.00;55.70;;;;;;4935119;28;91244;-50
2022/12/16 01:48:19;;;;;;;90.40;67.30;;;11.00;55.60;;;;;;4930802;28;90313;-47
2022/12/16 01:50:45;;;;;;;93.47;67.93;;;11.10;55.70;;;;;;4935239;28;89566;-50
2022/12/16 01:53:11;;;;;;;89.63;66.57;;;11.00;55.80;;;;;;4924798;28;89455;-49
2022/12/16 01:55:47;;;;;;;90.03;66.80;;;11.00;55.90;;;;;;4932609;28;90394;-48
2022/12/16 01:58:21;;;;;;;91.57;66.33;;;10.90;55.70;;;;;;4937709;28;89988;-50
2022/12/16 02:00:47;;;;;;;90.43;68.40;;;10.90;55.90;;;;;;4929287;28;90263;-48
2022/12/16 02:03:14;;;;;;;90.03;67.03;;;10.90;56.30;;;;;;4926802;28;93559;-46
2022/12/16 02:05:41;;;;;;;88.77;67.00;;;10.90;55.80;;;;;;4926562;28;89293;-48
2022/12/16 02:08:15;;;;;;;91.37;68.23;;;10.90;55.90;;;;;;4927814;28;89011;-46
2022/12/16 02:10:41;;;;;;;86.77;66.83;;;10.90;56.00;;;;;;4936181;28;89483;-48
2022/12/16 02:13:31;;;;;;;88.47;65.23;;;10.90;55.80;;;;;;4936304;28;89102;-47
2022/12/16 02:16:29;;;;;;;92.37;66.50;;;10.90;55.90;;;;;;4933771;28;88768;-51
2022/12/16 02:18:55;;;;;;;88.13;65.63;;;10.80;55.90;;;;;;4928676;28;89163;-46
2022/12/16 02:21:45;;;;;;;87.53;65.73;;;10.80;55.90;;;;;;4930811;28;90530;-48
2022/12/16 02:24:28;;;;;;;89.37;68.07;;;10.80;55.90;;;;;;4930086;28;90677;-46
2022/12/16 02:27:15;;;;;;;96.70;68.00;;;10.80;56.00;;;;;;4930444;28;89362;-49
2022/12/16 02:29:53;;;;;;;91.70;66.57;;;10.80;56.00;;;;;;4928340;28;89031;-48
2022/12/16 02:32:47;;;;;;;89.10;69.07;;;10.80;56.10;;;;;;4939036;28;89131;-47
2022/12/16 02:35:25;;;;;;;92.67;67.43;;;10.80;56.00;;;;;;4933495;28;90586;-52
2022/12/16 02:38:21;;;;;;;89.80;67.70;;;10.80;56.00;;;;;;4926386;28;89283;-48
2022/12/16 02:41:00;;;;;;;91.67;67.70;;;10.80;56.10;;;;;;4924631;28;92601;-49
2022/12/16 02:43:38;;;;;;;93.10;68.37;;;10.80;55.80;;;;;;4928332;28;90127;-47
2022/12/16 02:46:06;;;;;;;88.93;66.17;;;10.80;55.70;;;;;;4933827;28;89443;-48
2022/12/16 02:48:31;;;;;;;89.67;66.30;;;10.80;55.80;;;;;;4931982;28;89049;-48
2022/12/16 02:50:57;;;;;;;88.13;67.47;;;10.80;55.70;;;;;;4936862;28;92077;-48
2022/12/16 02:53:23;;;;;;;91.87;66.70;;;10.80;55.60;;;;;;4931513;28;90986;-48
2022/12/16 02:56:29;;;;;;;88.63;67.30;;;10.70;55.80;;;;;;4928209;28;89624;-49
2022/12/16 02:59:13;;;;;;;92.57;67.97;;;10.70;55.90;;;;;;4921581;28;92083;-47
2022/12/16 03:01:50;;;;;;;87.23;66.77;;;10.70;55.80;;;;;;4929915;28;89780;-47
2022/12/16 03:04:26;;;;;;;93.17;67.53;;;10.70;56.10;;;;;;4931426;28;89447;-50
2022/12/16 03:06:53;;;;;;;92.30;68.00;;;10.70;55.80;;;;;;4930286;28;89034;-46
2022/12/16 03:09:27;;;;;;;89.07;66.60;;;10.60;55.90;;;;;;4931733;28;88253;-48
2022/12/16 03:11:55;;;;;;;90.33;66.10;;;10.60;55.90;;;;;;4931656;28;89433;-48
2022/12/16 03:14:24;;;;;;;92.10;66.20;;;10.50;56.10;;;;;;4930067;28;91638;-52
2022/12/16 03:16:50;;;;;;;89.33;66.67;;;10.50;56.20;;;;;;4942595;28;90513;-47
2022/12/16 03:19:19;;;;;;;89.43;66.37;;;10.60;56.10;;;;;;4936872;28;90930;-46
2022/12/16 03:22:01;;;;;;;88.37;66.33;;;10.60;56.00;;;;;;4931229;28;90501;-47
2022/12/16 03:24:28;;;;;;;86.33;65.30;;;10.60;55.80;;;;;;4927752;28;90016;-48
2022/12/16 03:27:17;;;;;;;89.53;66.57;;;10.60;55.90;;;;;;4932599;28;88899;-47
2022/12/16 03:29:52;;;;;;;90.83;66.77;;;10.50;56.10;;;;;;4941031;28;89307;-48
2022/12/16 03:32:28;;;;;;;89.57;67.77;;;10.50;55.90;;;;;;4928675;28;89437;-48
2022/12/16 03:34:59;;;;;;;90.10;67.27;;;10.50;55.90;;;;;;4931174;28;89092;-47
2022/12/16 03:37:30;;;;;;;90.10;67.38;;;10.50;56.00;;;;;;4940686;28;88754;-49
2022/12/16 03:39:59;;;;;;;88.13;67.30;;;10.50;55.90;;;;;;4926674;28;90237;-47
2022/12/16 03:42:25;;;;;;;93.20;68.03;;;10.50;55.80;;;;;;4919402;28;90616;-46
2022/12/16 03:44:51;;;;;;;88.30;65.53;;;10.50;55.90;;;;;;4933388;28;90596;-46
2022/12/16 03:47:17;;;;;;;87.87;66.67;;;10.50;56.10;;;;;;4947668;28;90473;-46
2022/12/16 03:49:44;;;;;;;90.20;66.30;;;10.40;55.90;;;;;;4923950;28;89339;-47
2022/12/16 03:52:10;;;;;;;88.47;67.33;;;10.50;56.40;;;;;;4923239;28;91027;-52
2022/12/16 03:54:36;;;;;;;87.00;67.30;;;10.50;55.80;;;;;;4927966;28;93331;-48
2022/12/16 03:57:02;;;;;;;90.63;67.73;;;10.40;55.80;;;;;;4921849;28;90372;-51
2022/12/16 03:59:27;;;;;;;90.20;67.50;;;10.40;55.70;;;;;;4928583;28;88455;-49
2022/12/16 04:01:53;;;;;;;90.03;66.90;;;10.40;55.70;;;;;;4926951;28;89528;-47
2022/12/16 04:04:19;;;;;;;87.63;67.30;;;10.40;55.80;;;;;;4932427;28;89281;-49
2022/12/16 04:07:18;;;;;;;93.27;68.83;;;10.40;55.80;;;;;;4928246;28;90954;-46
2022/12/16 04:09:30;;;;;;;89.27;66.77;;;10.40;55.80;;;;;;4923108;28;92438;-50
2022/12/16 04:25:44;;;;;;;88.03;65.83;;;10.30;55.90;;;;;;4934277;28;88513;-48
2022/12/16 04:28:10;;;;;;;89.07;65.77;;;10.30;55.80;;;;;;4931845;28;90411;-48
2022/12/16 04:30:36;;;;;;;88.50;66.47;;;10.30;56.00;;;;;;4926439;28;92810;-49
